createdAt,value
2022-08-04T00:01:19.482Z,21.50
2022-08-04T00:03:55.773Z,21.50
2022-08-04T00:06:30.799Z,21.40
2022-08-04T00:09:02.655Z,21.30
2022-08-04T00:11:32.678Z,21.30
2022-08-04T00:14:09.742Z,21.40
2022-08-04T00:16:38.883Z,21.30
2022-08-04T00:19:17.657Z,21.30
2022-08-04T00:21:51.448Z,21.20
2022-08-04T00:24:20.833Z,21.10
2022-08-04T00:26:47.843Z,21.10
2022-08-04T00:29:15.390Z,21.00
2022-08-04T00:31:54.773Z,20.90
2022-08-04T00:34:26.785Z,20.90
2022-08-04T00:36:54.597Z,20.90
2022-08-04T00:39:21.786Z,20.80
2022-08-04T00:42:02.742Z,20.90
2022-08-04T00:44:47.945Z,20.80
2022-08-04T00:47:23.658Z,20.80
2022-08-04T00:50:10.618Z,20.70
2022-08-04T00:52:55.596Z,20.70
2022-08-04T00:55:49.914Z,20.60
2022-08-04T00:58:37.976Z,20.60
2022-08-04T01:01:08.629Z,20.60
2022-08-04T01:04:03.554Z,20.50
2022-08-04T01:06:56.480Z,20.50
2022-08-04T01:09:49.370Z,20.60
2022-08-04T01:12:55.118Z,20.50
2022-08-04T01:16:00.178Z,20.40
2022-08-04T01:19:13.723Z,20.40
2022-08-04T01:22:00.882Z,20.30
2022-08-04T01:24:47.360Z,20.30
2022-08-04T01:27:26.153Z,20.20
2022-08-04T01:29:59.530Z,20.10
2022-08-04T01:32:36.388Z,20.10
2022-08-04T01:35:21.836Z,20.00
2022-08-04T01:38:00.754Z,20.00
2022-08-04T01:40:28.049Z,19.90
2022-08-04T01:42:55.639Z,19.90
2022-08-04T01:45:25.023Z,19.90
2022-08-04T01:47:56.230Z,19.90
2022-08-04T01:50:24.277Z,19.80
2022-08-04T01:52:54.510Z,19.90
2022-08-04T01:55:21.417Z,19.90
2022-08-04T01:57:51.372Z,19.90
2022-08-04T02:00:21.765Z,19.80
2022-08-04T02:02:50.356Z,19.90
2022-08-04T02:05:19.362Z,19.90
2022-08-04T02:08:04.226Z,19.90
2022-08-04T02:10:47.582Z,19.80
2022-08-04T02:13:28.059Z,19.90
2022-08-04T02:16:01.479Z,19.90
2022-08-04T02:18:44.803Z,19.90
2022-08-04T02:21:15.125Z,19.90
2022-08-04T02:23:41.864Z,19.90
2022-08-04T02:26:22.123Z,19.90
2022-08-04T02:29:19.966Z,19.80
2022-08-04T02:32:15.234Z,19.90
2022-08-04T02:35:09.171Z,19.90
2022-08-04T02:37:35.981Z,19.90
2022-08-04T02:40:05.987Z,19.90
2022-08-04T02:42:34.434Z,19.90
2022-08-04T02:45:01.340Z,19.90
2022-08-04T02:48:28.823Z,19.80
2022-08-04T02:50:28.594Z,19.80
2022-08-04T02:52:58.897Z,19.90
2022-08-04T02:55:27.284Z,19.90
2022-08-04T02:57:56.318Z,19.80
2022-08-04T03:00:23.714Z,19.80
2022-08-04T03:03:24.363Z,19.80
2022-08-04T03:06:13.731Z,19.90
2022-08-04T03:08:43.350Z,19.90
2022-08-04T03:11:25.053Z,19.80
2022-08-04T03:14:13.486Z,19.80
2022-08-04T03:17:18.068Z,19.80
2022-08-04T03:20:30.490Z,19.80
2022-08-04T03:23:17.975Z,19.70
2022-08-04T03:26:19.226Z,19.70
2022-08-04T03:29:36.752Z,19.60
2022-08-04T03:32:21.142Z,19.60
2022-08-04T03:35:00.090Z,19.60
2022-08-04T03:38:04.602Z,19.60
2022-08-04T03:40:47.845Z,19.60
2022-08-04T03:43:57.615Z,19.70
2022-08-04T03:46:18.575Z,19.60
2022-08-04T03:49:27.050Z,19.60
2022-08-04T03:52:50.669Z,19.70
2022-08-04T03:55:29.558Z,19.70
2022-08-04T03:58:34.289Z,19.70
2022-08-04T04:01:13.812Z,19.70
2022-08-04T04:03:58.151Z,19.70
2022-08-04T04:06:44.693Z,19.70
2022-08-04T04:09:21.015Z,19.70
2022-08-04T04:12:06.063Z,19.70
2022-08-04T04:14:38.417Z,19.80
2022-08-04T04:17:22.234Z,19.80
2022-08-04T04:20:20.419Z,19.80
2022-08-04T04:23:14.350Z,19.80
2022-08-04T04:25:57.937Z,19.80
2022-08-04T04:28:55.187Z,19.80
2022-08-04T04:31:54.677Z,19.80
2022-08-04T04:34:46.387Z,19.80
2022-08-04T04:37:20.864Z,19.90
2022-08-04T04:40:25.126Z,19.90
2022-08-04T04:43:51.708Z,19.90
2022-08-04T04:46:21.479Z,20.00
2022-08-04T04:49:09.966Z,20.10
2022-08-04T04:51:48.138Z,20.10
2022-08-04T04:54:32.402Z,20.20
2022-08-04T04:57:13.795Z,20.30
2022-08-04T04:59:54.998Z,20.40
2022-08-04T05:02:42.494Z,20.50
2022-08-04T05:05:24.204Z,20.50
2022-08-04T05:08:45.163Z,20.70
2022-08-04T05:11:50.713Z,20.80
2022-08-04T05:14:41.041Z,21.00
2022-08-04T05:17:22.432Z,21.10
2022-08-04T05:19:58.968Z,21.20
2022-08-04T05:22:47.987Z,21.40
2022-08-04T05:25:23.609Z,21.60
2022-08-04T05:28:01.130Z,21.70
2022-08-04T05:30:30.555Z,21.90
2022-08-04T05:33:04.611Z,22.00
2022-08-04T05:36:16.335Z,22.00
2022-08-04T05:38:31.750Z,22.10
2022-08-04T05:40:59.218Z,22.20
2022-08-04T05:43:26.609Z,22.30
2022-08-04T05:45:54.279Z,22.40
2022-08-04T05:48:21.140Z,22.50
2022-08-04T05:50:48.210Z,22.60
2022-08-04T05:53:16.642Z,22.70
2022-08-04T05:55:57.398Z,22.90
2022-08-04T05:58:30.679Z,23.00
2022-08-04T06:01:00.895Z,23.10
2022-08-04T06:03:29.596Z,23.20
2022-08-04T06:05:58.330Z,23.40
2022-08-04T06:08:26.644Z,23.50
2022-08-04T06:10:56.759Z,23.50
2022-08-04T06:13:47.931Z,23.40
2022-08-04T06:16:28.910Z,23.50
2022-08-04T06:20:00.175Z,23.50
2022-08-04T06:21:58.737Z,23.70
2022-08-04T06:24:29.729Z,23.90
2022-08-04T06:26:57.270Z,24.00
2022-08-04T06:29:30.728Z,24.10
2022-08-04T06:32:26.713Z,24.10
2022-08-04T06:34:47.545Z,24.10
2022-08-04T06:37:24.185Z,24.30
2022-08-04T06:40:30.898Z,24.60
2022-08-04T06:42:53.612Z,24.70
2022-08-04T06:45:21.292Z,24.80
2022-08-04T06:47:48.876Z,24.80
2022-08-04T06:51:24.794Z,24.90
2022-08-04T06:53:03.947Z,25.00
2022-08-04T06:55:33.202Z,25.20
2022-08-04T06:58:03.402Z,25.30
2022-08-04T07:00:32.034Z,25.50
2022-08-04T07:02:59.321Z,25.80
2022-08-04T07:05:26.507Z,25.90
2022-08-04T07:07:57.943Z,26.20
2022-08-04T07:10:29.231Z,26.30
2022-08-04T07:12:57.164Z,26.40
2022-08-04T07:15:25.430Z,26.40
2022-08-04T07:17:53.522Z,26.60
2022-08-04T07:20:34.845Z,26.70
2022-08-04T07:23:04.445Z,26.80
2022-08-04T07:26:00.463Z,27.00
2022-08-04T07:28:19.873Z,27.10
2022-08-04T07:30:48.227Z,27.10
2022-08-04T07:33:18.528Z,27.20
2022-08-04T07:36:05.818Z,27.20
2022-08-04T07:38:37.926Z,27.30
2022-08-04T07:41:38.512Z,27.30
2022-08-04T07:44:06.781Z,27.50
2022-08-04T07:46:33.658Z,27.70
2022-08-04T07:49:01.413Z,28.00
2022-08-04T07:51:30.441Z,28.20
2022-08-04T07:53:58.560Z,28.30
2022-08-04T07:56:26.777Z,28.10
2022-08-04T07:58:54.188Z,28.20
2022-08-04T08:01:21.459Z,28.20
2022-08-04T08:03:48.917Z,28.30
2022-08-04T08:06:31.465Z,28.40
2022-08-04T08:09:02.191Z,28.40
2022-08-04T08:12:36.165Z,28.60
2022-08-04T08:14:32.120Z,29.00
2022-08-04T08:17:00.179Z,29.40
2022-08-04T08:19:27.021Z,29.50
2022-08-04T08:21:59.386Z,29.90
2022-08-04T08:24:29.014Z,29.80
2022-08-04T08:26:56.752Z,30.10
2022-08-04T08:29:24.356Z,30.10
2022-08-04T08:31:57.279Z,30.00
2022-08-04T08:34:31.185Z,30.00
2022-08-04T08:37:41.836Z,30.30
2022-08-04T08:40:16.204Z,30.60
2022-08-04T08:44:05.342Z,30.70
2022-08-04T08:46:38.781Z,30.70
2022-08-04T08:50:01.582Z,30.60
2022-08-04T08:53:00.668Z,30.60
2022-08-04T08:55:32.776Z,30.40
2022-08-04T08:58:24.124Z,30.50
2022-08-04T09:01:25.970Z,30.70
2022-08-04T09:04:31.995Z,30.90
2022-08-04T09:07:06.105Z,31.10
2022-08-04T09:10:11.812Z,31.20
2022-08-04T09:13:04.244Z,31.20
2022-08-04T09:15:43.445Z,31.10
2022-08-04T09:18:18.676Z,31.00
2022-08-04T09:21:04.269Z,31.00
2022-08-04T09:24:03.438Z,31.00
2022-08-04T09:27:00.120Z,30.90
2022-08-04T09:29:48.669Z,30.90
2022-08-04T09:32:28.307Z,31.20
2022-08-04T09:35:08.414Z,31.40
2022-08-04T09:37:46.183Z,31.30
2022-08-04T09:40:52.341Z,31.10
2022-08-04T09:43:57.203Z,31.10
2022-08-04T09:46:25.185Z,31.30
2022-08-04T09:49:40.147Z,31.60
2022-08-04T09:52:16.868Z,31.90
2022-08-04T09:54:47.191Z,31.90
2022-08-04T09:57:29.850Z,32.10
2022-08-04T10:00:17.625Z,32.30
2022-08-04T10:02:50.988Z,32.30
2022-08-04T10:05:25.671Z,32.30
2022-08-04T10:08:16.714Z,32.40
2022-08-04T10:11:21.321Z,32.50
2022-08-04T10:13:57.382Z,32.40
2022-08-04T10:16:58.486Z,32.50
2022-08-04T10:19:32.393Z,32.90
2022-08-04T10:22:28.900Z,33.00
2022-08-04T10:25:39.016Z,33.00
2022-08-04T10:28:17.182Z,33.20
2022-08-04T10:30:51.924Z,33.30
2022-08-04T10:33:37.152Z,33.30
2022-08-04T10:36:09.168Z,33.20
2022-08-04T10:39:42.981Z,33.40
2022-08-04T10:42:27.273Z,33.40
2022-08-04T10:44:59.670Z,33.40
2022-08-04T10:47:33.881Z,33.40
2022-08-04T10:50:03.023Z,33.60
2022-08-04T10:52:44.043Z,33.50
2022-08-04T10:55:19.871Z,33.40
2022-08-04T10:57:55.724Z,33.30
2022-08-04T11:00:25.557Z,33.50
2022-08-04T11:03:17.664Z,33.60
2022-08-04T11:05:55.925Z,33.60
2022-08-04T11:08:35.801Z,33.70
2022-08-04T11:11:20.658Z,33.80
2022-08-04T11:13:56.143Z,33.90
2022-08-04T11:16:27.632Z,33.60
2022-08-04T11:19:42.559Z,33.50
2022-08-04T11:22:22.108Z,33.80
2022-08-04T11:25:05.803Z,34.10
2022-08-04T11:27:50.647Z,34.00
2022-08-04T11:30:19.074Z,33.60
2022-08-04T11:33:19.955Z,33.50
2022-08-04T11:36:06.908Z,33.80
2022-08-04T11:38:52.108Z,34.10
2022-08-04T11:41:26.518Z,34.60
2022-08-04T11:44:01.957Z,35.00
2022-08-04T11:46:42.946Z,35.10
2022-08-04T11:49:27.801Z,35.40
2022-08-04T11:51:57.002Z,35.30
2022-08-04T11:54:23.631Z,35.80
2022-08-04T11:56:50.805Z,36.20
2022-08-04T11:59:18.782Z,36.30
2022-08-04T12:02:20.692Z,36.40
2022-08-04T12:05:06.126Z,36.50
2022-08-04T12:07:41.939Z,37.00
2022-08-04T12:10:41.529Z,36.70
2022-08-04T12:13:24.531Z,36.80
2022-08-04T12:16:09.093Z,37.10
2022-08-04T12:18:43.047Z,37.00
2022-08-04T12:21:23.972Z,36.20
2022-08-04T12:24:00.531Z,35.50
2022-08-04T12:26:32.541Z,35.10
2022-08-04T12:29:16.127Z,34.80
2022-08-04T12:31:48.108Z,34.80
2022-08-04T12:34:51.325Z,34.80
2022-08-04T12:37:41.165Z,34.80
2022-08-04T12:40:28.212Z,35.20
2022-08-04T12:43:20.055Z,36.20
2022-08-04T12:45:50.598Z,37.00
2022-08-04T12:48:21.346Z,36.90
2022-08-04T12:50:53.904Z,36.30
2022-08-04T12:53:50.707Z,36.10
2022-08-04T12:56:25.729Z,36.30
2022-08-04T12:58:53.921Z,36.80
2022-08-04T13:02:08.919Z,37.00
2022-08-04T13:04:15.283Z,37.00
2022-08-04T13:06:43.167Z,37.20
2022-08-04T13:09:19.578Z,36.60
2022-08-04T13:11:56.784Z,36.50
2022-08-04T13:14:28.682Z,36.90
2022-08-04T13:17:04.125Z,36.60
2022-08-04T13:19:31.787Z,36.40
2022-08-04T13:22:08.270Z,36.00
2022-08-04T13:24:56.203Z,36.40
2022-08-04T13:27:24.353Z,36.60
2022-08-04T13:29:57.850Z,37.20
2022-08-04T13:32:28.583Z,37.00
2022-08-04T13:34:57.323Z,37.00
2022-08-04T13:37:34.931Z,37.50
2022-08-04T13:40:04.847Z,37.40
2022-08-04T13:42:34.270Z,37.40
2022-08-04T13:45:04.400Z,37.10
2022-08-04T13:47:33.936Z,37.00
2022-08-04T13:50:22.504Z,36.70
2022-08-04T13:52:53.172Z,36.90
2022-08-04T13:55:25.603Z,36.50
2022-08-04T13:58:08.853Z,36.50
2022-08-04T14:00:52.378Z,36.80
2022-08-04T14:03:54.402Z,37.20
2022-08-04T14:06:43.936Z,36.80
2022-08-04T14:09:15.201Z,37.20
2022-08-04T14:12:09.680Z,36.60
2022-08-04T14:14:33.662Z,36.50
2022-08-04T14:17:07.786Z,36.10
2022-08-04T14:19:46.324Z,35.90
2022-08-04T14:22:26.622Z,36.70
2022-08-04T14:25:06.538Z,37.30
2022-08-04T14:27:52.533Z,37.30
2022-08-04T14:30:32.705Z,37.50
2022-08-04T14:34:02.156Z,37.50
2022-08-04T14:35:58.979Z,36.90
2022-08-04T14:38:49.003Z,36.00
2022-08-04T14:41:17.749Z,35.80
2022-08-04T14:43:49.640Z,35.60
2022-08-04T14:46:17.766Z,35.80
2022-08-04T14:49:00.796Z,35.40
2022-08-04T14:51:36.747Z,36.90
2022-08-04T14:54:08.253Z,37.80
2022-08-04T14:56:46.857Z,35.90
2022-08-04T14:59:14.409Z,35.10
2022-08-04T15:01:43.048Z,34.80
2022-08-04T15:04:11.033Z,34.70
2022-08-04T15:06:38.198Z,34.60
2022-08-04T15:09:07.826Z,34.50
2022-08-04T15:11:38.957Z,34.30
2022-08-04T15:14:08.589Z,34.10
2022-08-04T15:16:55.276Z,34.00
2022-08-04T15:19:22.592Z,32.60
2022-08-04T15:21:49.814Z,31.30
2022-08-04T15:24:16.973Z,30.80
2022-08-04T15:26:48.539Z,30.30
2022-08-04T15:29:23.702Z,29.90
2022-08-04T15:32:03.853Z,29.80
2022-08-04T15:35:07.504Z,29.70
2022-08-04T15:37:39.765Z,29.60
2022-08-04T15:40:12.242Z,29.40
2022-08-04T15:42:43.793Z,29.40
2022-08-04T15:45:22.078Z,29.40
2022-08-04T15:48:05.311Z,29.10
2022-08-04T15:50:32.482Z,28.80
2022-08-04T15:53:01.067Z,28.80
2022-08-04T15:55:43.124Z,28.80
2022-08-04T15:58:13.013Z,28.70
2022-08-04T16:00:57.286Z,28.60
2022-08-04T16:03:59.189Z,28.60
2022-08-04T16:06:22.642Z,28.50
2022-08-04T16:08:57.238Z,28.60
2022-08-04T16:11:31.717Z,28.40
2022-08-04T16:13:58.804Z,28.20
2022-08-04T16:16:32.952Z,28.00
2022-08-04T16:19:08.201Z,27.80
2022-08-04T16:21:46.795Z,27.60
2022-08-04T16:24:28.250Z,27.40
2022-08-04T16:27:00.483Z,27.30
2022-08-04T16:29:44.578Z,27.40
2022-08-04T16:32:15.601Z,27.40
2022-08-04T16:34:54.794Z,27.40
2022-08-04T16:37:29.034Z,27.40
2022-08-04T16:40:23.947Z,27.40
2022-08-04T16:42:50.940Z,27.50
2022-08-04T16:45:18.394Z,27.60
2022-08-04T16:47:48.167Z,27.50
2022-08-04T16:50:16.354Z,27.40
2022-08-04T16:52:44.650Z,27.40
2022-08-04T16:55:12.767Z,27.40
2022-08-04T16:57:39.670Z,27.40
2022-08-04T17:00:08.400Z,27.90
2022-08-04T17:02:36.413Z,29.30
2022-08-04T17:05:07.883Z,30.70
2022-08-04T17:08:07.082Z,30.10
2022-08-04T17:10:42.126Z,29.50
2022-08-04T17:14:03.066Z,29.00
2022-08-04T17:16:18.453Z,28.50
2022-08-04T17:18:54.080Z,28.40
2022-08-04T17:21:27.264Z,28.00
2022-08-04T17:24:15.489Z,27.70
2022-08-04T17:26:53.802Z,27.60
2022-08-04T17:29:44.222Z,27.50
2022-08-04T17:32:21.165Z,27.30
2022-08-04T17:34:50.326Z,27.20
2022-08-04T17:37:38.979Z,27.10
2022-08-04T17:40:13.967Z,26.90
2022-08-04T17:42:41.797Z,26.80
2022-08-04T17:51:17.439Z,26.70
2022-08-04T17:54:02.571Z,26.50
2022-08-04T17:56:34.268Z,26.50
2022-08-04T17:59:55.917Z,26.50
2022-08-04T18:02:13.025Z,26.40
2022-08-04T18:05:05.873Z,26.40
2022-08-04T18:08:40.412Z,26.30
2022-08-04T18:10:38.654Z,26.30
2022-08-04T18:13:21.663Z,26.20
2022-08-04T18:15:50.993Z,26.20
2022-08-04T18:21:06.658Z,26.10
2022-08-04T18:23:33.609Z,26.00
2022-08-04T18:26:02.279Z,25.90
2022-08-04T18:28:30.947Z,25.80
2022-08-04T18:31:01.298Z,25.70
2022-08-04T18:33:40.125Z,25.70
2022-08-04T18:36:32.889Z,25.70
2022-08-04T18:38:58.596Z,25.60
2022-08-04T18:42:00.669Z,25.70
2022-08-04T18:44:16.386Z,25.60
2022-08-04T18:46:52.473Z,25.60
2022-08-04T18:50:40.241Z,25.70
2022-08-04T18:52:10.220Z,25.70
2022-08-04T18:54:42.164Z,25.60
2022-08-04T18:57:32.634Z,25.60
2022-08-04T18:59:55.860Z,25.70
2022-08-04T19:02:23.428Z,25.80
2022-08-04T19:04:53.225Z,25.70
2022-08-04T19:07:28.814Z,25.70
2022-08-04T19:09:59.233Z,25.50
2022-08-04T19:12:28.480Z,25.20
2022-08-04T19:14:58.163Z,25.10
2022-08-04T19:17:53.952Z,25.10
2022-08-04T19:20:26.182Z,25.00
2022-08-04T19:24:30.533Z,24.90
2022-08-04T19:26:01.583Z,24.90
2022-08-04T19:31:19.168Z,24.80
2022-08-04T19:33:58.418Z,24.70
2022-08-04T19:36:30.950Z,24.60
2022-08-04T19:38:59.115Z,24.60
2022-08-04T19:41:27.070Z,24.50
2022-08-04T19:43:54.555Z,24.50
2022-08-04T19:46:21.523Z,24.50
2022-08-04T19:49:00.446Z,24.50
2022-08-04T19:51:32.868Z,24.50
2022-08-04T19:54:04.128Z,24.40
2022-08-04T19:59:21.447Z,24.10
2022-08-04T20:01:49.625Z,24.10
2022-08-04T20:04:16.510Z,24.00
2022-08-04T20:06:43.674Z,23.90
2022-08-04T20:09:24.964Z,23.80
2022-08-04T20:11:53.689Z,23.70
2022-08-04T20:14:31.136Z,23.60
2022-08-04T20:17:00.437Z,23.60
2022-08-04T20:19:27.516Z,23.50
2022-08-04T20:21:56.483Z,23.50
2022-08-04T20:24:38.832Z,23.40
2022-08-04T20:27:15.802Z,23.30
2022-08-04T20:29:49.319Z,23.20
2022-08-04T20:32:21.831Z,23.10
2022-08-04T20:34:50.262Z,23.10
2022-08-04T20:37:18.863Z,23.00
2022-08-04T20:39:54.705Z,23.00
2022-08-04T20:42:27.404Z,22.90
2022-08-04T20:45:01.457Z,22.80
2022-08-04T20:47:33.737Z,22.80
2022-08-04T20:50:08.848Z,22.80
2022-08-04T20:52:37.165Z,22.70
2022-08-04T20:55:05.235Z,22.70
2022-08-04T20:57:48.499Z,22.60
2022-08-04T21:00:17.808Z,22.60
2022-08-04T21:02:56.330Z,22.60
2022-08-04T21:05:23.574Z,22.60
2022-08-04T21:07:56.418Z,22.60
2022-08-04T21:10:24.634Z,22.60
2022-08-04T21:12:52.834Z,22.60
2022-08-04T21:15:25.710Z,22.50
2022-08-04T21:17:59.629Z,22.50
2022-08-04T21:20:31.425Z,22.40
2022-08-04T21:23:02.199Z,22.40
2022-08-04T21:25:30.764Z,22.30
2022-08-04T21:27:58.631Z,22.40
2022-08-04T21:30:26.777Z,22.30
2022-08-04T21:32:55.080Z,22.20
2022-08-04T21:35:37.073Z,22.20
2022-08-04T21:38:17.623Z,22.20
2022-08-04T21:40:53.670Z,22.20
2022-08-04T21:43:27.201Z,22.20
2022-08-04T21:45:54.949Z,22.10
2022-08-04T21:48:22.853Z,22.20
2022-08-04T21:50:50.802Z,22.10
2022-08-04T21:53:19.795Z,22.10
2022-08-04T21:56:06.816Z,22.00
2022-08-04T21:58:35.124Z,22.00
2022-08-04T22:01:13.071Z,21.90
2022-08-04T22:03:53.561Z,21.90
2022-08-04T22:06:28.303Z,21.90
2022-08-04T22:08:57.041Z,21.80
2022-08-04T22:11:43.765Z,21.80
2022-08-04T22:14:15.195Z,21.80
2022-08-04T22:16:42.418Z,21.70
2022-08-04T22:19:10.915Z,21.70
2022-08-04T22:21:39.224Z,21.60
2022-08-04T22:24:14.004Z,21.60
2022-08-04T22:26:41.153Z,21.50
2022-08-04T22:29:14.599Z,21.40
2022-08-04T22:31:53.193Z,21.40
2022-08-04T22:34:24.262Z,21.30
2022-08-04T22:36:51.246Z,21.30
2022-08-04T22:39:23.288Z,21.30
2022-08-04T22:42:02.964Z,21.20
2022-08-04T22:44:33.149Z,21.10
2022-08-04T22:47:01.165Z,21.10
2022-08-04T22:49:31.512Z,21.10
2022-08-04T22:51:58.897Z,21.00
2022-08-04T22:54:26.115Z,21.00
2022-08-04T22:56:56.797Z,20.90
2022-08-04T22:59:24.049Z,20.90
2022-08-04T23:01:59.284Z,20.80
2022-08-04T23:04:29.420Z,20.80
2022-08-04T23:06:56.241Z,20.80
2022-08-04T23:09:49.148Z,20.70
2022-08-04T23:12:27.186Z,20.70
2022-08-04T23:14:56.417Z,20.80
2022-08-04T23:17:24.579Z,20.70
2022-08-04T23:19:57.488Z,20.60
2022-08-04T23:22:37.489Z,20.60
2022-08-04T23:25:15.969Z,20.50
2022-08-04T23:27:44.191Z,20.40
2022-08-04T23:30:19.531Z,20.40
2022-08-04T23:32:46.203Z,20.30
2022-08-04T23:35:15.163Z,20.20
2022-08-04T23:37:56.147Z,20.20
2022-08-04T23:40:33.674Z,20.20
2022-08-04T23:43:17.083Z,20.10
2022-08-04T23:46:04.411Z,20.00
2022-08-04T23:48:36.114Z,20.00
2022-08-04T23:51:14.028Z,19.90
2022-08-04T23:53:41.719Z,19.80
2022-08-04T23:56:28.273Z,19.70
2022-08-04T23:58:56.260Z,19.70
